sensor_id;sensor_type;location;lat;lon;timestamp;pressure;altitude;pressure_sealevel;temperature;humidity
59493;BME280;45497;43.996;22.876;2024-01-15T00:02:12;100569.19;;;5.93;43.17
59493;BME280;45497;43.996;22.876;2024-01-15T00:04:39;100567.38;;;5.94;43.10
59493;BME280;45497;43.996;22.876;2024-01-15T00:07:05;100578.47;;;5.98;42.73
59493;BME280;45497;43.996;22.876;2024-01-15T00:09:31;100557.72;;;5.94;42.87
59493;BME280;45497;43.996;22.876;2024-01-15T00:11:57;100561.06;;;5.97;43.07
59493;BME280;45497;43.996;22.876;2024-01-15T00:14:23;100562.84;;;5.86;43.42
59493;BME280;45497;43.996;22.876;2024-01-15T00:16:48;100561.63;;;5.81;43.14
59493;BME280;45497;43.996;22.876;2024-01-15T00:19:20;100571.72;;;5.85;43.37
59493;BME280;45497;43.996;22.876;2024-01-15T00:21:46;100566.28;;;5.87;43.46
59493;BME280;45497;43.996;22.876;2024-01-15T00:24:12;100556.34;;;5.81;43.10
59493;BME280;45497;43.996;22.876;2024-01-15T00:26:38;100561.19;;;5.85;42.93
59493;BME280;45497;43.996;22.876;2024-01-15T00:29:03;100561.88;;;5.87;43.15
59493;BME280;45497;43.996;22.876;2024-01-15T00:31:29;100555.09;;;5.85;43.11
59493;BME280;45497;43.996;22.876;2024-01-15T00:33:56;100551.38;;;5.78;42.92
59493;BME280;45497;43.996;22.876;2024-01-15T00:36:22;100546.75;;;5.42;43.76
59493;BME280;45497;43.996;22.876;2024-01-15T00:38:48;100541.34;;;5.34;43.75
59493;BME280;45497;43.996;22.876;2024-01-15T00:41:14;100546.59;;;5.44;43.66
59493;BME280;45497;43.996;22.876;2024-01-15T00:43:40;100548.00;;;5.48;43.76
59493;BME280;45497;43.996;22.876;2024-01-15T00:46:05;100540.50;;;5.43;43.66
59493;BME280;45497;43.996;22.876;2024-01-15T00:48:31;100548.09;;;5.56;43.91
59493;BME280;45497;43.996;22.876;2024-01-15T00:50:57;100545.34;;;5.58;43.82
59493;BME280;45497;43.996;22.876;2024-01-15T00:53:23;100540.34;;;5.54;43.41
59493;BME280;45497;43.996;22.876;2024-01-15T00:55:49;100548.09;;;5.56;43.39
59493;BME280;45497;43.996;22.876;2024-01-15T00:58:14;100540.06;;;5.58;43.61
59493;BME280;45497;43.996;22.876;2024-01-15T01:00:41;100539.13;;;5.59;43.50
59493;BME280;45497;43.996;22.876;2024-01-15T01:03:07;100540.88;;;5.58;43.56
59493;BME280;45497;43.996;22.876;2024-01-15T01:05:35;100543.81;;;5.55;43.26
59493;BME280;45497;43.996;22.876;2024-01-15T01:08:01;100540.88;;;5.58;43.27
59493;BME280;45497;43.996;22.876;2024-01-15T01:10:27;100539.81;;;5.51;43.39
59493;BME280;45497;43.996;22.876;2024-01-15T01:12:53;100544.56;;;5.28;43.81
59493;BME280;45497;43.996;22.876;2024-01-15T01:15:18;100543.28;;;4.73;45.92
59493;BME280;45497;43.996;22.876;2024-01-15T01:17:44;100548.75;;;4.41;46.53
59493;BME280;45497;43.996;22.876;2024-01-15T01:20:10;100544.84;;;4.35;46.85
59493;BME280;45497;43.996;22.876;2024-01-15T01:22:36;100536.28;;;4.24;47.41
59493;BME280;45497;43.996;22.876;2024-01-15T01:25:02;100534.22;;;4.27;47.02
59493;BME280;45497;43.996;22.876;2024-01-15T01:27:28;100529.97;;;4.36;46.87
59493;BME280;45497;43.996;22.876;2024-01-15T01:29:53;100532.59;;;4.36;46.50
59493;BME280;45497;43.996;22.876;2024-01-15T01:32:19;100537.09;;;4.24;46.57
59493;BME280;45497;43.996;22.876;2024-01-15T01:34:44;100534.22;;;4.27;46.63
59493;BME280;45497;43.996;22.876;2024-01-15T01:37:11;100531.72;;;4.26;46.67
59493;BME280;45497;43.996;22.876;2024-01-15T01:39:39;100530.75;;;4.27;46.18
59493;BME280;45497;43.996;22.876;2024-01-15T01:42:05;100536.72;;;4.38;46.26
59493;BME280;45497;43.996;22.876;2024-01-15T01:44:33;100532.59;;;4.36;45.95
59493;BME280;45497;43.996;22.876;2024-01-15T01:46:59;100521.94;;;4.37;45.79
59493;BME280;45497;43.996;22.876;2024-01-15T01:49:26;100528.66;;;4.20;46.10
59493;BME280;45497;43.996;22.876;2024-01-15T01:51:53;100536.06;;;4.06;46.60
59493;BME280;45497;43.996;22.876;2024-01-15T01:54:20;100531.84;;;3.83;47.27
59493;BME280;45497;43.996;22.876;2024-01-15T01:56:47;100534.28;;;3.75;47.58
59493;BME280;45497;43.996;22.876;2024-01-15T01:59:14;100521.06;;;3.87;47.11
59493;BME280;45497;43.996;22.876;2024-01-15T02:01:40;100523.22;;;4.02;46.77
59493;BME280;45497;43.996;22.876;2024-01-15T02:04:06;100509.16;;;4.04;46.44
59493;BME280;45497;43.996;22.876;2024-01-15T02:06:33;100511.91;;;4.12;46.33
59493;BME280;45497;43.996;22.876;2024-01-15T02:08:59;100503.09;;;4.13;46.12
59493;BME280;45497;43.996;22.876;2024-01-15T02:11:24;100500.19;;;4.16;45.92
59493;BME280;45497;43.996;22.876;2024-01-15T02:13:50;100491.63;;;4.14;46.33
59493;BME280;45497;43.996;22.876;2024-01-15T02:16:16;100487.06;;;4.16;46.39
59493;BME280;45497;43.996;22.876;2024-01-15T02:18:45;100478.00;;;4.20;46.17
59493;BME280;45497;43.996;22.876;2024-01-15T02:21:11;100487.38;;;4.22;46.34
59493;BME280;45497;43.996;22.876;2024-01-15T02:23:38;100472.44;;;4.13;46.07
59493;BME280;45497;43.996;22.876;2024-01-15T02:26:05;100470.00;;;4.21;46.34
59493;BME280;45497;43.996;22.876;2024-01-15T02:28:31;100465.56;;;4.32;46.04
59493;BME280;45497;43.996;22.876;2024-01-15T02:30:57;100464.75;;;4.31;46.15
59493;BME280;45497;43.996;22.876;2024-01-15T02:33:23;100466.75;;;4.08;46.56
59493;BME280;45497;43.996;22.876;2024-01-15T02:35:49;100453.09;;;3.64;47.75
59493;BME280;45497;43.996;22.876;2024-01-15T02:38:15;100464.88;;;3.49;48.28
59493;BME280;45497;43.996;22.876;2024-01-15T02:40:42;100464.41;;;3.64;47.79
59493;BME280;45497;43.996;22.876;2024-01-15T02:43:08;100454.94;;;3.83;47.24
59493;BME280;45497;43.996;22.876;2024-01-15T02:45:34;100451.53;;;3.92;47.13
59493;BME280;45497;43.996;22.876;2024-01-15T02:48:00;100453.19;;;3.93;47.24
59493;BME280;45497;43.996;22.876;2024-01-15T02:50:28;100444.78;;;3.90;47.47
59493;BME280;45497;43.996;22.876;2024-01-15T02:52:54;100452.97;;;3.66;48.55
59493;BME280;45497;43.996;22.876;2024-01-15T02:55:19;100447.13;;;3.31;49.68
59493;BME280;45497;43.996;22.876;2024-01-15T02:57:45;100452.00;;;3.15;50.54
59493;BME280;45497;43.996;22.876;2024-01-15T03:00:11;100443.75;;;3.19;50.08
59493;BME280;45497;43.996;22.876;2024-01-15T03:02:38;100443.09;;;3.27;50.06
59493;BME280;45497;43.996;22.876;2024-01-15T03:05:09;100442.31;;;3.36;49.80
59493;BME280;45497;43.996;22.876;2024-01-15T03:07:34;100442.66;;;3.43;49.89
59493;BME280;45497;43.996;22.876;2024-01-15T03:10:05;100433.00;;;3.43;49.62
59493;BME280;45497;43.996;22.876;2024-01-15T03:12:33;100435.09;;;3.50;49.24
59493;BME280;45497;43.996;22.876;2024-01-15T03:14:59;100439.50;;;3.49;49.43
59493;BME280;45497;43.996;22.876;2024-01-15T03:17:25;100424.19;;;3.44;49.49
59493;BME280;45497;43.996;22.876;2024-01-15T03:19:50;100416.81;;;3.38;49.68
59493;BME280;45497;43.996;22.876;2024-01-15T03:22:17;100434.09;;;3.41;49.95
59493;BME280;45497;43.996;22.876;2024-01-15T03:24:43;100425.13;;;3.43;49.75
59493;BME280;45497;43.996;22.876;2024-01-15T03:27:09;100420.59;;;3.45;49.73
59493;BME280;45497;43.996;22.876;2024-01-15T03:29:34;100407.63;;;3.44;49.50
59493;BME280;45497;43.996;22.876;2024-01-15T03:32:00;100411.09;;;3.54;49.48
59493;BME280;45497;43.996;22.876;2024-01-15T03:34:25;100394.88;;;3.60;49.09
59493;BME280;45497;43.996;22.876;2024-01-15T03:36:51;100401.75;;;3.61;48.91
59493;BME280;45497;43.996;22.876;2024-01-15T03:39:17;100394.44;;;3.55;49.23
59493;BME280;45497;43.996;22.876;2024-01-15T03:41:42;100393.03;;;3.51;49.11
59493;BME280;45497;43.996;22.876;2024-01-15T03:44:08;100390.56;;;3.50;49.27
59493;BME280;45497;43.996;22.876;2024-01-15T03:46:34;100377.59;;;3.48;49.31
59493;BME280;45497;43.996;22.876;2024-01-15T03:48:59;100381.72;;;3.51;49.59
59493;BME280;45497;43.996;22.876;2024-01-15T03:51:25;100385.19;;;3.51;49.74
59493;BME280;45497;43.996;22.876;2024-01-15T03:53:53;100379.09;;;3.51;49.33
59493;BME280;45497;43.996;22.876;2024-01-15T03:56:21;100386.84;;;3.21;49.83
59493;BME280;45497;43.996;22.876;2024-01-15T03:58:50;100385.38;;;3.08;50.67
59493;BME280;45497;43.996;22.876;2024-01-15T04:01:15;100381.94;;;2.86;51.37
59493;BME280;45497;43.996;22.876;2024-01-15T04:03:41;100372.06;;;2.68;51.52
59493;BME280;45497;43.996;22.876;2024-01-15T04:06:06;100375.44;;;2.59;51.46
59493;BME280;45497;43.996;22.876;2024-01-15T04:08:32;100378.63;;;2.63;51.66
59493;BME280;45497;43.996;22.876;2024-01-15T04:10:58;100370.16;;;2.71;51.37
59493;BME280;45497;43.996;22.876;2024-01-15T04:13:23;100368.53;;;2.58;51.39
59493;BME280;45497;43.996;22.876;2024-01-15T04:15:49;100378.06;;;2.59;51.30
59493;BME280;45497;43.996;22.876;2024-01-15T04:18:16;100378.56;;;2.53;51.09
59493;BME280;45497;43.996;22.876;2024-01-15T04:20:41;100378.19;;;2.58;50.95
59493;BME280;45497;43.996;22.876;2024-01-15T04:23:07;100374.88;;;2.56;50.59
59493;BME280;45497;43.996;22.876;2024-01-15T04:25:32;100362.84;;;2.53;50.62
59493;BME280;45497;43.996;22.876;2024-01-15T04:27:58;100358.59;;;2.52;50.29
59493;BME280;45497;43.996;22.876;2024-01-15T04:30:27;100363.56;;;2.55;50.37
59493;BME280;45497;43.996;22.876;2024-01-15T04:32:53;100367.31;;;2.62;50.16
59493;BME280;45497;43.996;22.876;2024-01-15T04:35:18;100366.44;;;2.73;49.83
59493;BME280;45497;43.996;22.876;2024-01-15T04:37:44;100351.63;;;2.83;49.32
59493;BME280;45497;43.996;22.876;2024-01-15T04:40:12;100353.47;;;2.93;49.25
59493;BME280;45497;43.996;22.876;2024-01-15T04:42:38;100377.81;;;3.04;48.85
59493;BME280;45497;43.996;22.876;2024-01-15T04:45:04;100360.78;;;2.99;48.85
59493;BME280;45497;43.996;22.876;2024-01-15T04:47:30;100358.19;;;2.99;48.86
59493;BME280;45497;43.996;22.876;2024-01-15T04:50:05;100363.84;;;3.04;48.98
59493;BME280;45497;43.996;22.876;2024-01-15T04:52:31;100354.47;;;3.01;48.85
59493;BME280;45497;43.996;22.876;2024-01-15T04:54:59;100346.75;;;3.00;48.90
59493;BME280;45497;43.996;22.876;2024-01-15T04:57:25;100352.13;;;2.98;48.75
59493;BME280;45497;43.996;22.876;2024-01-15T04:59:50;100354.16;;;2.95;48.78
59493;BME280;45497;43.996;22.876;2024-01-15T05:02:16;100350.47;;;2.97;48.75
59493;BME280;45497;43.996;22.876;2024-01-15T05:04:41;100355.38;;;3.12;48.64
59493;BME280;45497;43.996;22.876;2024-01-15T05:07:07;100353.03;;;3.18;48.44
59493;BME280;45497;43.996;22.876;2024-01-15T05:09:33;100351.69;;;3.24;48.48
59493;BME280;45497;43.996;22.876;2024-01-15T05:12:01;100348.34;;;3.12;48.52
59493;BME280;45497;43.996;22.876;2024-01-15T05:14:27;100340.28;;;3.04;48.46
59493;BME280;45497;43.996;22.876;2024-01-15T05:16:53;100341.56;;;3.10;48.62
59493;BME280;45497;43.996;22.876;2024-01-15T05:19:18;100345.59;;;3.14;48.68
59493;BME280;45497;43.996;22.876;2024-01-15T05:21:45;100325.19;;;3.17;48.73
59493;BME280;45497;43.996;22.876;2024-01-15T05:24:11;100327.13;;;3.15;48.55
59493;BME280;45497;43.996;22.876;2024-01-15T05:26:39;100325.06;;;3.19;48.65
59493;BME280;45497;43.996;22.876;2024-01-15T05:29:04;100320.78;;;3.18;48.53
59493;BME280;45497;43.996;22.876;2024-01-15T05:31:30;100315.53;;;3.08;48.62
59493;BME280;45497;43.996;22.876;2024-01-15T05:33:58;100325.91;;;3.19;48.78
59493;BME280;45497;43.996;22.876;2024-01-15T05:36:24;100320.22;;;3.14;48.76
59493;BME280;45497;43.996;22.876;2024-01-15T05:39:08;100334.53;;;3.10;48.61
59493;BME280;45497;43.996;22.876;2024-01-15T05:41:34;100344.44;;;3.06;49.46
59493;BME280;45497;43.996;22.876;2024-01-15T05:44:00;100335.50;;;3.09;49.31
59493;BME280;45497;43.996;22.876;2024-01-15T05:46:26;100338.88;;;3.21;49.21
59493;BME280;45497;43.996;22.876;2024-01-15T05:48:51;100336.38;;;3.19;49.05
59493;BME280;45497;43.996;22.876;2024-01-15T05:51:17;100351.41;;;3.17;49.09
59493;BME280;45497;43.996;22.876;2024-01-15T05:53:43;100354.84;;;3.18;49.32
59493;BME280;45497;43.996;22.876;2024-01-15T05:56:10;100360.44;;;3.13;49.50
59493;BME280;45497;43.996;22.876;2024-01-15T05:58:35;100357.91;;;3.23;49.45
59493;BME280;45497;43.996;22.876;2024-01-15T06:01:01;100344.25;;;3.29;49.50
59493;BME280;45497;43.996;22.876;2024-01-15T06:03:30;100342.34;;;3.31;49.25
59493;BME280;45497;43.996;22.876;2024-01-15T06:05:56;100331.72;;;3.33;49.10
59493;BME280;45497;43.996;22.876;2024-01-15T06:08:22;100345.56;;;3.44;49.16
59493;BME280;45497;43.996;22.876;2024-01-15T06:10:47;100348.06;;;3.56;48.84
59493;BME280;45497;43.996;22.876;2024-01-15T06:13:13;100332.22;;;3.57;48.84
59493;BME280;45497;43.996;22.876;2024-01-15T06:15:39;100337.16;;;3.51;49.13
59493;BME280;45497;43.996;22.876;2024-01-15T06:18:07;100333.84;;;3.49;49.26
59493;BME280;45497;43.996;22.876;2024-01-15T06:20:34;100329.28;;;3.41;49.11
59493;BME280;45497;43.996;22.876;2024-01-15T06:22:59;100327.63;;;3.40;49.23
59493;BME280;45497;43.996;22.876;2024-01-15T06:25:25;100329.16;;;3.42;49.10
59493;BME280;45497;43.996;22.876;2024-01-15T06:27:51;100315.63;;;3.37;49.23
59493;BME280;45497;43.996;22.876;2024-01-15T06:30:17;100303.19;;;3.30;48.94
59493;BME280;45497;43.996;22.876;2024-01-15T06:32:42;100307.63;;;3.39;48.95
59493;BME280;45497;43.996;22.876;2024-01-15T06:35:08;100307.63;;;3.39;49.12
59493;BME280;45497;43.996;22.876;2024-01-15T06:37:35;100301.16;;;3.43;49.02
59493;BME280;45497;43.996;22.876;2024-01-15T06:40:01;100303.38;;;3.48;48.87
59493;BME280;45497;43.996;22.876;2024-01-15T06:42:28;100293.28;;;3.43;48.99
59493;BME280;45497;43.996;22.876;2024-01-15T06:44:53;100298.00;;;3.49;49.22
59493;BME280;45497;43.996;22.876;2024-01-15T06:47:19;100293.56;;;3.40;49.06
59493;BME280;45497;43.996;22.876;2024-01-15T06:49:45;100277.56;;;3.33;49.48
59493;BME280;45497;43.996;22.876;2024-01-15T06:52:13;100272.84;;;3.27;49.60
59493;BME280;45497;43.996;22.876;2024-01-15T06:54:39;100276.16;;;3.29;49.91
59493;BME280;45497;43.996;22.876;2024-01-15T06:57:08;100280.06;;;3.44;49.64
59493;BME280;45497;43.996;22.876;2024-01-15T06:59:34;100273.44;;;3.50;49.28
59493;BME280;45497;43.996;22.876;2024-01-15T07:02:01;100297.16;;;3.39;49.40
59493;BME280;45497;43.996;22.876;2024-01-15T07:04:26;100291.78;;;3.50;49.53
59493;BME280;45497;43.996;22.876;2024-01-15T07:06:52;100271.25;;;3.65;49.08
59493;BME280;45497;43.996;22.876;2024-01-15T07:09:18;100282.31;;;3.69;48.96
59493;BME280;45497;43.996;22.876;2024-01-15T07:11:46;100284.22;;;3.67;49.14
59493;BME280;45497;43.996;22.876;2024-01-15T07:14:12;100278.44;;;3.53;49.49
59493;BME280;45497;43.996;22.876;2024-01-15T07:16:38;100292.34;;;3.44;49.38
59493;BME280;45497;43.996;22.876;2024-01-15T07:19:04;100291.78;;;3.50;49.92
59493;BME280;45497;43.996;22.876;2024-01-15T07:21:30;100289.84;;;3.42;50.31
59493;BME280;45497;43.996;22.876;2024-01-15T07:23:55;100300.41;;;3.31;50.28
59493;BME280;45497;43.996;22.876;2024-01-15T07:26:21;100296.28;;;3.29;50.55
59493;BME280;45497;43.996;22.876;2024-01-15T07:28:47;100297.53;;;3.34;50.44
59493;BME280;45497;43.996;22.876;2024-01-15T07:31:12;100288.31;;;3.40;50.02
59493;BME280;45497;43.996;22.876;2024-01-15T07:33:38;100308.63;;;3.57;50.04
59493;BME280;45497;43.996;22.876;2024-01-15T07:36:04;100281.47;;;3.58;50.05
59493;BME280;45497;43.996;22.876;2024-01-15T07:38:29;100305.75;;;3.70;49.86
59493;BME280;45497;43.996;22.876;2024-01-15T07:40:55;100287.53;;;3.69;49.66
59493;BME280;45497;43.996;22.876;2024-01-15T07:43:21;100290.59;;;3.64;49.83
59493;BME280;45497;43.996;22.876;2024-01-15T07:45:51;100282.72;;;3.64;49.67
59493;BME280;45497;43.996;22.876;2024-01-15T07:48:17;100293.19;;;3.54;49.88
59493;BME280;45497;43.996;22.876;2024-01-15T07:50:42;100269.59;;;3.54;50.38
59493;BME280;45497;43.996;22.876;2024-01-15T07:53:08;100277.50;;;3.74;49.43
59493;BME280;45497;43.996;22.876;2024-01-15T07:55:34;100268.94;;;3.81;49.53
59493;BME280;45497;43.996;22.876;2024-01-15T07:57:59;100269.22;;;3.98;48.94
59493;BME280;45497;43.996;22.876;2024-01-15T08:00:25;100273.50;;;3.99;49.25
59493;BME280;45497;43.996;22.876;2024-01-15T08:02:52;100263.81;;;3.99;49.25
59493;BME280;45497;43.996;22.876;2024-01-15T08:05:20;100282.31;;;4.17;48.80
59493;BME280;45497;43.996;22.876;2024-01-15T08:07:46;100259.69;;;4.16;48.96
59493;BME280;45497;43.996;22.876;2024-01-15T08:10:15;100264.13;;;4.73;51.03
59493;BME280;45497;43.996;22.876;2024-01-15T08:12:48;100280.31;;;6.33;57.52
59493;BME280;45497;43.996;22.876;2024-01-15T08:15:20;100283.59;;;7.56;62.63
59493;BME280;45497;43.996;22.876;2024-01-15T08:17:53;100278.56;;;8.20;62.23
59493;BME280;45497;43.996;22.876;2024-01-15T08:20:19;100279.38;;;7.96;61.41
59493;BME280;45497;43.996;22.876;2024-01-15T08:22:45;100283.41;;;7.50;59.72
59493;BME280;45497;43.996;22.876;2024-01-15T08:25:11;100275.94;;;6.94;58.18
59493;BME280;45497;43.996;22.876;2024-01-15T08:27:38;100280.56;;;6.22;56.99
59493;BME280;45497;43.996;22.876;2024-01-15T08:30:08;100270.56;;;5.89;56.45
59493;BME280;45497;43.996;22.876;2024-01-15T08:32:34;100267.44;;;5.58;55.01
59493;BME280;45497;43.996;22.876;2024-01-15T08:35:02;100265.53;;;5.05;53.41
59493;BME280;45497;43.996;22.876;2024-01-15T08:37:29;100273.88;;;4.90;53.02
59493;BME280;45497;43.996;22.876;2024-01-15T08:39:55;100274.75;;;4.81;52.77
59493;BME280;45497;43.996;22.876;2024-01-15T08:42:22;100263.47;;;4.98;52.09
59493;BME280;45497;43.996;22.876;2024-01-15T08:44:50;100257.13;;;5.01;51.69
59493;BME280;45497;43.996;22.876;2024-01-15T08:47:18;100252.19;;;4.88;51.36
59493;BME280;45497;43.996;22.876;2024-01-15T08:49:43;100254.25;;;4.94;50.99
59493;BME280;45497;43.996;22.876;2024-01-15T08:52:11;100259.53;;;4.85;50.59
59493;BME280;45497;43.996;22.876;2024-01-15T08:54:37;100267.75;;;4.62;49.81
59493;BME280;45497;43.996;22.876;2024-01-15T08:57:05;100255.09;;;4.28;50.06
59493;BME280;45497;43.996;22.876;2024-01-15T08:59:33;100269.22;;;4.27;50.15
59493;BME280;45497;43.996;22.876;2024-01-15T09:02:01;100261.31;;;4.47;49.89
59493;BME280;45497;43.996;22.876;2024-01-15T09:04:27;100258.06;;;4.63;49.57
59493;BME280;45497;43.996;22.876;2024-01-15T09:06:52;100246.25;;;4.49;49.29
59493;BME280;45497;43.996;22.876;2024-01-15T09:09:18;100234.63;;;4.61;49.37
59493;BME280;45497;43.996;22.876;2024-01-15T09:11:45;100232.13;;;4.59;49.42
59493;BME280;45497;43.996;22.876;2024-01-15T09:14:11;100219.97;;;4.58;49.53
59493;BME280;45497;43.996;22.876;2024-01-15T09:16:37;100216.06;;;4.63;49.04
59493;BME280;45497;43.996;22.876;2024-01-15T09:19:03;100225.59;;;4.64;49.09
59493;BME280;45497;43.996;22.876;2024-01-15T09:21:29;100216.06;;;4.63;49.32
59493;BME280;45497;43.996;22.876;2024-01-15T09:23:54;100214.44;;;4.52;49.23
59493;BME280;45497;43.996;22.876;2024-01-15T09:26:20;100216.06;;;4.63;49.20
59493;BME280;45497;43.996;22.876;2024-01-15T09:28:46;100206.94;;;4.67;49.47
59493;BME280;45497;43.996;22.876;2024-01-15T09:31:14;100204.72;;;4.72;49.48
59493;BME280;45497;43.996;22.876;2024-01-15T09:33:40;100189.25;;;4.69;49.77
59493;BME280;45497;43.996;22.876;2024-01-15T09:36:08;100192.28;;;4.74;49.51
59493;BME280;45497;43.996;22.876;2024-01-15T09:38:34;100183.19;;;4.68;49.60
59493;BME280;45497;43.996;22.876;2024-01-15T09:41:00;100197.56;;;4.64;50.07
59493;BME280;45497;43.996;22.876;2024-01-15T09:43:25;100195.53;;;4.86;49.61
59493;BME280;45497;43.996;22.876;2024-01-15T09:45:53;100179.00;;;4.75;49.33
59493;BME280;45497;43.996;22.876;2024-01-15T09:48:19;100186.44;;;4.80;49.77
59493;BME280;45497;43.996;22.876;2024-01-15T09:50:45;100182.25;;;4.87;49.31
59493;BME280;45497;43.996;22.876;2024-01-15T09:53:11;100166.63;;;4.86;49.08
59493;BME280;45497;43.996;22.876;2024-01-15T09:55:41;100169.78;;;4.89;49.34
59493;BME280;45497;43.996;22.876;2024-01-15T09:58:10;100163.09;;;5.05;48.82
59493;BME280;45497;43.996;22.876;2024-01-15T10:00:36;100153.53;;;5.04;48.98
59493;BME280;45497;43.996;22.876;2024-01-15T10:03:04;100147.03;;;5.08;48.89
59493;BME280;45497;43.996;22.876;2024-01-15T10:05:32;100150.78;;;5.05;48.66
59493;BME280;45497;43.996;22.876;2024-01-15T10:08:00;100154.28;;;4.96;48.67
59493;BME280;45497;43.996;22.876;2024-01-15T10:10:28;100155.97;;;5.15;48.58
59493;BME280;45497;43.996;22.876;2024-01-15T10:12:54;100152.53;;;5.32;48.36
59493;BME280;45497;43.996;22.876;2024-01-15T10:15:23;100151.59;;;5.24;48.24
59493;BME280;45497;43.996;22.876;2024-01-15T10:17:50;100149.16;;;5.22;48.32
59493;BME280;45497;43.996;22.876;2024-01-15T10:20:17;100149.84;;;5.24;48.13
59493;BME280;45497;43.996;22.876;2024-01-15T10:22:45;100148.94;;;5.33;48.22
59493;BME280;45497;43.996;22.876;2024-01-15T10:25:15;100133.88;;;5.44;48.26
59493;BME280;45497;43.996;22.876;2024-01-15T10:27:41;100128.19;;;5.48;47.87
59493;BME280;45497;43.996;22.876;2024-01-15T10:30:08;100127.38;;;5.30;47.22
59493;BME280;45497;43.996;22.876;2024-01-15T10:32:36;100144.88;;;5.39;48.01
59493;BME280;45497;43.996;22.876;2024-01-15T10:35:03;100132.84;;;5.36;47.46
59493;BME280;45497;43.996;22.876;2024-01-15T10:37:33;100134.34;;;5.21;47.89
59493;BME280;45497;43.996;22.876;2024-01-15T10:40:02;100124.28;;;5.16;48.15
59493;BME280;45497;43.996;22.876;2024-01-15T10:42:33;100109.22;;;5.19;48.06
59493;BME280;45497;43.996;22.876;2024-01-15T10:44:59;100107.41;;;5.19;47.98
59493;BME280;45497;43.996;22.876;2024-01-15T10:47:28;100112.56;;;5.47;47.90
59493;BME280;45497;43.996;22.876;2024-01-15T10:49:57;100105.84;;;5.70;47.49
59493;BME280;45497;43.996;22.876;2024-01-15T10:52:23;100106.00;;;5.69;47.64
59493;BME280;45497;43.996;22.876;2024-01-15T10:54:52;100102.03;;;5.65;47.96
59493;BME280;45497;43.996;22.876;2024-01-15T10:57:21;100103.88;;;5.72;47.62
59493;BME280;45497;43.996;22.876;2024-01-15T10:59:47;100099.53;;;5.63;47.97
59493;BME280;45497;43.996;22.876;2024-01-15T11:02:14;100113.06;;;5.68;47.95
59493;BME280;45497;43.996;22.876;2024-01-15T11:04:41;100098.69;;;5.81;47.88
59493;BME280;45497;43.996;22.876;2024-01-15T11:07:07;100091.53;;;5.91;47.67
59493;BME280;45497;43.996;22.876;2024-01-15T11:09:34;100096.88;;;5.99;47.47
59493;BME280;45497;43.996;22.876;2024-01-15T11:12:11;100087.09;;;5.91;47.99
59493;BME280;45497;43.996;22.876;2024-01-15T11:14:46;100087.50;;;5.97;47.62
59493;BME280;45497;43.996;22.876;2024-01-15T11:17:13;100078.00;;;6.04;47.68
59493;BME280;45497;43.996;22.876;2024-01-15T11:19:42;100081.53;;;6.21;47.31
59493;BME280;45497;43.996;22.876;2024-01-15T11:22:10;100083.06;;;6.31;47.36
59493;BME280;45497;43.996;22.876;2024-01-15T11:24:40;100077.44;;;6.26;47.12
59493;BME280;45497;43.996;22.876;2024-01-15T11:27:07;100074.97;;;6.25;47.38
59493;BME280;45497;43.996;22.876;2024-01-15T11:29:36;100076.63;;;6.26;47.53
59493;BME280;45497;43.996;22.876;2024-01-15T11:34:51;100068.13;;;6.40;47.39
59493;BME280;45497;43.996;22.876;2024-01-15T11:37:18;100069.38;;;6.28;46.92
59493;BME280;45497;43.996;22.876;2024-01-15T11:39:44;100077.84;;;6.40;47.18
59493;BME280;45497;43.996;22.876;2024-01-15T11:42:14;100069.78;;;6.41;46.82
59493;BME280;45497;43.996;22.876;2024-01-15T11:44:44;100072.44;;;6.49;46.84
59493;BME280;45497;43.996;22.876;2024-01-15T11:47:11;100074.41;;;6.47;47.29
59493;BME280;45497;43.996;22.876;2024-01-15T11:52:22;100075.09;;;6.58;46.52
59493;BME280;45497;43.996;22.876;2024-01-15T11:55:27;100064.88;;;6.46;46.63
59493;BME280;45497;43.996;22.876;2024-01-15T11:57:54;100064.38;;;6.43;46.47
59493;BME280;45497;43.996;22.876;2024-01-15T12:00:22;100061.72;;;6.43;46.14
59493;BME280;45497;43.996;22.876;2024-01-15T12:02:50;100049.38;;;6.43;45.94
59493;BME280;45497;43.996;22.876;2024-01-15T12:05:19;100049.03;;;6.38;46.37
59493;BME280;45497;43.996;22.876;2024-01-15T12:07:47;100054.16;;;6.48;46.10
59493;BME280;45497;43.996;22.876;2024-01-15T12:10:16;100058.13;;;6.52;46.39
59493;BME280;45497;43.996;22.876;2024-01-15T12:13:05;100047.94;;;6.57;46.41
59493;BME280;45497;43.996;22.876;2024-01-15T12:15:36;100044.47;;;6.57;46.26
59493;BME280;45497;43.996;22.876;2024-01-15T12:18:08;100057.47;;;6.58;46.40
59493;BME280;45497;43.996;22.876;2024-01-15T12:20:34;100046.59;;;6.45;46.89
59493;BME280;45497;43.996;22.876;2024-01-15T12:23:00;100038.34;;;6.40;46.64
59493;BME280;45497;43.996;22.876;2024-01-15T12:25:33;100031.66;;;6.54;46.54
59493;BME280;45497;43.996;22.876;2024-01-15T12:28:01;100031.16;;;6.58;46.56
59493;BME280;45497;43.996;22.876;2024-01-15T12:30:30;100017.16;;;6.58;46.63
59493;BME280;45497;43.996;22.876;2024-01-15T12:33:03;100006.28;;;6.53;46.52
59493;BME280;45497;43.996;22.876;2024-01-15T12:35:33;100014.84;;;6.46;47.38
59493;BME280;45497;43.996;22.876;2024-01-15T12:38:02;99991.66;;;6.50;47.34
59493;BME280;45497;43.996;22.876;2024-01-15T12:40:28;99999.22;;;6.53;47.31
59493;BME280;45497;43.996;22.876;2024-01-15T12:42:56;99985.19;;;6.36;47.99
59493;BME280;45497;43.996;22.876;2024-01-15T12:45:24;99985.50;;;6.25;48.23
59493;BME280;45497;43.996;22.876;2024-01-15T12:47:58;99979.75;;;6.29;48.25
59493;BME280;45497;43.996;22.876;2024-01-15T12:50:24;99985.69;;;6.40;48.18
59493;BME280;45497;43.996;22.876;2024-01-15T12:52:54;99978.66;;;6.48;48.35
59493;BME280;45497;43.996;22.876;2024-01-15T12:55:20;99979.44;;;6.41;48.39